עמוד ראשי
METAR-TAF:

METAR-TAF

שדות תעופה :

Igiugig, אלסקה, ארצות הברית

קו רוחב: 59-19-27N, קו אורך: 155-54-06W, גובה: 27מטר

תצפית מזג אוויר נוכחית

הדו"ח נערך לפני 1 שעות ו 3דקות, בשעה 18:56 UTC
רוח 4קשר מכיוון מערב/צפון-מערב
טמפרטורת 14 צלסיוס
לחות 58%
לחץ 1017 hPa
ראות: 14.5קילומטר
שמיים נקיים

METAR: PAIG 171856Z AUTO 29004KT 9SM CLR 14/06 A3003 RMK AO2 SLP179 T01440061

זמן: 11:59 (19:59 UTC)


TAF: חסר

תצפיות ותחזיות מזג אוויר לגבי יותר מ- 4,000 שדות תעופה ברחבי העולם. דוחות METAR ו- TAF.

התחנות הזמינות מסומנות בנקודות צהובות ואדומות על גבי המפה.

העבר את העכבר לנקודה הצבעונית על מנת לראות את שם התחנה.

לאחר מכן, לחץ כדי לראות את תוכן ואת תחזיות מזג האוויר.

כדי לשנות את המפה: לחץ על הכפתורים הירוקים עם הפלוס השחור כדי להתקרב; על הכפתור הירוק עם המקף כדי להתרחק; או בחיצים הירוקים למפות סמוכות.


METAR-TAF: